Time;durP1;ratioP1;P1;durP2;ratioP2;P2;SDS_P1;SDS_P2;PMS_P1;PMS_P2;Temp;Humidity;BMP_temperature;BMP_pressure;BME280_temperature;BME280_humidity;BME280_pressure;Samples;Min_cycle;Max_cycle;Signal;HPM_P1;HPM_P2
2024/01/08 00:00:15;;;;;;;3.55;2.40;;;;;;;12.91;79.41;99886.75;5056117;28;20028;-90
2024/01/08 00:02:41;;;;;;;2.63;2.15;;;;;;;12.96;79.42;99887.78;5034247;28;20032;-86
2024/01/08 00:05:07;;;;;;;3.30;2.25;;;;;;;12.99;79.46;99895.72;5020659;28;20044;-90
2024/01/08 00:07:33;;;;;;;3.35;2.47;;;;;;;13.03;79.55;99908.97;5032389;28;20134;-90
2024/01/08 00:09:59;;;;;;;3.00;2.20;;;;;;;12.93;79.28;99891.22;5048716;28;20489;-86
2024/01/08 00:12:24;;;;;;;3.88;2.40;;;;;;;12.77;79.50;99870.63;5063138;28;20021;-89
2024/01/08 00:14:50;;;;;;;3.35;2.28;;;;;;;12.95;79.41;99899.09;5030732;28;20024;-89
2024/01/08 00:17:16;;;;;;;3.47;2.40;;;;;;;12.79;79.21;99876.81;5037498;28;20036;-89
2024/01/08 00:19:41;;;;;;;2.55;2.10;;;;;;;12.87;79.26;99887.50;5045410;28;20024;-90
2024/01/08 00:22:08;;;;;;;2.40;2.08;;;;;;;12.82;79.45;99877.75;5031528;28;20123;-90
2024/01/08 00:24:36;;;;;;;3.20;2.50;;;;;;;13.10;79.28;99928.41;5024301;28;20028;-90
2024/01/08 00:27:03;;;;;;;3.58;2.53;;;;;;;13.06;79.51;99925.63;5038678;28;20104;-90
2024/01/08 00:29:29;;;;;;;3.72;2.20;;;;;;;13.18;79.27;99945.25;5036874;28;20047;-90
2024/01/08 00:31:55;;;;;;;3.08;2.22;;;;;;;12.77;79.24;99881.09;5052568;28;20032;-89
2024/01/08 00:34:21;;;;;;;3.15;2.17;;;;;;;12.85;79.23;99890.09;5041951;28;20033;-90
2024/01/08 00:36:46;;;;;;;2.85;2.28;;;;;;;12.74;79.35;99876.66;5045820;28;20051;-90
2024/01/08 00:39:12;;;;;;;3.33;2.15;;;;;;;12.56;79.58;99850.78;5049318;28;20051;-89
2024/01/08 00:41:39;;;;;;;3.40;2.30;;;;;;;12.96;79.47;99916.63;5033605;28;20032;-90
2024/01/08 00:44:04;;;;;;;3.83;2.42;;;;;;;12.96;79.51;99916.63;5038985;28;20052;-91
2024/01/08 00:46:30;;;;;;;3.50;2.13;;;;;;;12.91;79.46;99907.72;5051108;28;20429;-90
2024/01/08 00:48:57;;;;;;;2.65;2.13;;;;;;;12.58;79.54;99864.81;5071131;28;20114;-90
2024/01/08 00:51:23;;;;;;;3.70;2.13;;;;;;;12.63;79.54;99884.16;5072795;28;20551;-87
2024/01/08 00:53:49;;;;;;;4.20;2.33;;;;;;;12.61;79.64;99880.63;5076468;28;20025;-90
2024/01/08 00:56:15;;;;;;;4.07;2.15;;;;;;;13.08;79.57;99956.31;5067777;28;20032;-90
2024/01/08 00:58:45;;;;;;;3.33;2.28;;;;;;;12.86;79.60;99917.19;5055438;28;20032;-89
2024/01/08 01:01:13;;;;;;;2.78;2.13;;;;;;;13.10;79.60;99966.81;5083869;28;20036;-88
2024/01/08 01:03:39;;;;;;;2.83;2.05;;;;;;;12.74;79.42;99905.47;5070683;28;20058;-90
2024/01/08 01:06:06;;;;;;;2.60;2.10;;;;;;;12.98;79.47;99944.66;5087508;28;20039;-90
2024/01/08 01:08:31;;;;;;;3.33;2.13;;;;;;;12.90;79.46;99926.91;5076725;28;20028;-90
2024/01/08 01:10:58;;;;;;;2.75;2.10;;;;;;;13.22;79.48;99982.94;5074126;28;20094;-90
2024/01/08 01:13:24;;;;;;;2.85;2.30;;;;;;;12.70;79.49;99900.06;5081934;28;20094;-89
2024/01/08 01:15:49;;;;;;;3.67;2.17;;;;;;;13.20;79.46;99982.00;5070652;28;20390;-89
2024/01/08 01:18:15;;;;;;;2.72;2.15;;;;;;;12.80;79.22;99910.00;5080837;28;20042;-90
2024/01/08 01:20:41;;;;;;;4.13;2.03;;;;;;;12.58;79.54;99880.53;5089418;28;20123;-89
2024/01/08 01:23:07;;;;;;;3.28;2.15;;;;;;;12.69;79.34;99890.44;5062489;28;20043;-90
2024/01/08 01:25:32;;;;;;;2.70;2.38;;;;;;;12.67;79.46;99887.78;5083726;28;20515;-90
2024/01/08 01:27:58;;;;;;;3.13;2.20;;;;;;;12.83;79.36;99918.84;5080873;28;20036;-90
2024/01/08 01:30:24;;;;;;;2.83;2.25;;;;;;;12.98;79.56;99934.16;5055849;28;20033;-89
2024/01/08 01:32:50;;;;;;;2.28;1.83;;;;;;;12.70;79.42;99895.75;5088490;28;20050;-89
2024/01/08 01:35:17;;;;;;;3.40;2.30;;;;;;;13.17;79.43;99974.06;5059798;28;20111;-89
2024/01/08 01:37:44;;;;;;;2.20;2.00;;;;;;;12.55;79.55;99869.97;5072925;28;20056;-89
2024/01/08 01:40:10;;;;;;;3.08;2.20;;;;;;;12.82;79.37;99921.41;5089640;28;20035;-90
2024/01/08 01:42:36;;;;;;;3.45;2.20;;;;;;;12.81;79.58;99924.91;5082743;28;20035;-89
2024/01/08 01:45:03;;;;;;;2.58;1.80;;;;;;;12.69;79.53;99890.44;5074940;28;20435;-90
2024/01/08 01:47:29;;;;;;;2.33;1.98;;;;;;;13.05;79.35;99956.19;5073481;28;20059;-90
2024/01/08 01:49:54;;;;;;;3.00;1.83;;;;;;;12.76;79.26;99905.50;5083819;28;20024;-90
2024/01/08 01:52:21;;;;;;;1.90;1.70;;;;;;;12.91;79.36;99934.81;5086203;28;20052;-89
2024/01/08 01:54:47;;;;;;;;;;;;;;;13.22;79.22;99975.06;5075578;28;20066;-90
2024/01/08 01:57:13;;;;;;;2.57;2.07;;;;;;;12.96;79.70;99953.31;5090434;28;19920;-90
2024/01/08 01:59:42;;;;;;;2.72;2.15;;;;;;;12.93;79.45;99940.09;5103224;28;20432;-90
2024/01/08 02:02:11;;;;;;;3.08;2.20;;;;;;;13.12;79.44;99973.91;5091901;28;20782;-90
2024/01/08 02:04:37;;;;;;;3.00;2.10;;;;;;;12.96;79.28;99956.81;5073938;28;20020;-89
2024/01/08 02:07:04;;;;;;;;;;;;;;;13.17;79.44;99988.03;5074990;28;20089;-91
2024/01/08 02:09:30;;;;;;;2.80;2.22;;;;;;;13.00;79.69;99969.16;5070955;28;20349;-90
2024/01/08 02:11:58;;;;;;;2.03;1.77;;;;;;;12.85;79.35;99942.50;5084793;28;20557;-90
2024/01/08 02:14:24;;;;;;;2.58;1.90;;;;;;;12.77;79.50;99923.91;5067754;28;20035;-90
2024/01/08 02:16:50;;;;;;;3.28;1.77;;;;;;;12.80;79.37;99923.09;5070566;28;20783;-90
2024/01/08 02:19:17;;;;;;;2.72;1.88;;;;;;;12.81;79.19;99923.16;5082527;28;20055;-90
2024/01/08 02:21:44;;;;;;;2.28;1.90;;;;;;;13.08;79.27;99974.66;5089966;28;20121;-89
2024/01/08 02:24:10;;;;;;;2.22;1.85;;;;;;;13.18;79.43;99986.31;5087354;28;20039;-89
2024/01/08 02:26:36;;;;;;;3.38;2.10;;;;;;;13.08;79.50;99969.41;5070839;28;20025;-89
2024/01/08 02:29:03;;;;;;;2.38;2.10;;;;;;;12.62;79.66;99890.25;5083464;28;20040;-90
2024/01/08 02:31:29;;;;;;;2.45;1.90;;;;;;;13.10;79.35;99977.31;5058941;28;20028;-89
2024/01/08 02:33:55;;;;;;;1.92;1.73;;;;;;;12.71;79.23;99914.97;5073474;28;20020;-90
2024/01/08 02:36:23;;;;;;;2.38;1.80;;;;;;;12.56;79.50;99903.16;5065042;28;20469;-89
2024/01/08 02:38:49;;;;;;;2.35;1.90;;;;;;;12.70;79.50;99923.66;5083486;28;20032;-88
2024/01/08 02:41:15;;;;;;;2.70;1.80;;;;;;;12.72;79.47;99927.22;5084257;28;20401;-89
2024/01/08 02:43:41;;;;;;;2.13;1.67;;;;;;;12.76;79.46;99940.47;5087644;28;20070;-89
2024/01/08 02:46:07;;;;;;;2.55;2.00;;;;;;;12.99;79.25;99983.09;5068296;28;20087;-89
2024/01/08 02:48:32;;;;;;;3.58;1.85;;;;;;;12.78;79.30;99957.13;5069646;28;20036;-89
2024/01/08 02:50:58;;;;;;;2.40;2.00;;;;;;;13.03;78.98;99989.34;5086692;28;20067;-89
2024/01/08 02:53:24;;;;;;;2.78;1.63;;;;;;;13.07;79.47;100001.69;5082305;28;20505;-89
2024/01/08 02:55:49;;;;;;;2.15;1.80;;;;;;;12.86;79.13;99974.81;5067012;28;20456;-89
2024/01/08 02:58:15;;;;;;;2.97;2.00;;;;;;;13.06;79.35;100006.88;5088542;28;20076;-89
2024/01/08 03:00:41;;;;;;;2.17;1.70;;;;;;;13.03;79.45;100012.91;5077080;28;20024;-89
2024/01/08 03:03:08;;;;;;;2.33;1.88;;;;;;;12.71;79.33;99970.84;5076389;28;20036;-89
2024/01/08 03:05:33;;;;;;;6.43;2.20;;;;;;;13.02;79.57;100038.25;5067923;28;20036;-89
2024/01/08 03:07:59;;;;;;;2.92;1.80;;;;;;;12.75;79.48;99987.56;5083361;28;20035;-89
2024/01/08 03:10:25;;;;;;;1.80;1.63;;;;;;;12.65;79.43;99975.91;5082959;28;20692;-89
2024/01/08 03:12:50;;;;;;;2.75;1.67;;;;;;;12.63;79.66;99973.22;5054865;28;20048;-90
2024/01/08 03:15:16;;;;;;;2.35;2.03;;;;;;;13.08;79.51;100053.28;5091124;28;20050;-90
2024/01/08 03:17:43;;;;;;;1.98;1.70;;;;;;;12.77;79.32;100007.72;5074421;28;20500;-89
2024/01/08 03:20:09;;;;;;;2.05;1.70;;;;;;;12.63;79.47;99988.03;5070793;28;20044;-89
2024/01/08 03:22:36;;;;;;;2.13;1.92;;;;;;;12.68;79.54;99986.50;5083184;28;20089;-89
2024/01/08 03:25:02;;;;;;;2.67;1.67;;;;;;;12.67;79.57;100003.03;5084738;28;20077;-89
2024/01/08 03:27:31;;;;;;;2.53;2.20;;;;;;;13.08;79.50;100068.09;5063374;28;20467;-90
2024/01/08 03:29:57;;;;;;;2.67;1.88;;;;;;;12.81;79.43;100022.72;5067310;28;20040;-89
2024/01/08 03:32:23;;;;;;;2.58;1.70;;;;;;;13.12;79.34;100080.47;5063786;28;20032;-89
2024/01/08 03:34:49;;;;;;;2.90;2.00;;;;;;;13.00;79.32;100058.28;5077461;28;20500;-88
2024/01/08 03:37:15;;;;;;;1.70;1.48;;;;;;;12.97;79.27;100054.66;5065301;28;20478;-89
2024/01/08 03:39:40;;;;;;;3.72;1.90;;;;;;;12.76;79.70;100026.94;5059171;28;20048;-89
2024/01/08 03:42:06;;;;;;;1.88;1.63;;;;;;;12.70;79.59;100012.72;5079499;28;20106;-88
2024/01/08 03:44:32;;;;;;;2.50;1.80;;;;;;;12.95;79.59;100059.88;5085727;28;20036;-89
2024/01/08 03:47:00;;;;;;;2.67;1.80;;;;;;;13.05;79.63;100082.00;5071838;28;20048;-88
2024/01/08 03:49:26;;;;;;;1.90;1.70;;;;;;;13.07;79.49;100079.44;5088331;28;20028;-90
2024/01/08 03:51:52;;;;;;;3.15;1.80;;;;;;;12.91;79.46;100054.44;5089606;28;20404;-90
2024/01/08 03:54:17;;;;;;;1.75;1.55;;;;;;;12.63;79.36;100009.88;5079596;28;20089;-90
2024/01/08 03:56:44;;;;;;;2.25;1.77;;;;;;;12.93;79.44;100068.50;5087892;28;20047;-90
2024/01/08 03:59:13;;;;;;;1.80;1.65;;;;;;;13.04;79.43;100089.00;5075447;28;20031;-89
2024/01/08 04:01:44;;;;;;;2.22;1.85;;;;;;;12.65;79.49;100028.28;5072328;28;20032;-90
2024/01/08 04:04:11;;;;;;;2.45;1.60;;;;;;;12.90;79.29;100076.28;5080544;28;20027;-90
2024/01/08 04:06:37;;;;;;;2.60;2.22;;;;;;;12.75;79.44;100045.22;5085409;28;20036;-88
2024/01/08 04:09:04;;;;;;;1.92;1.60;;;;;;;12.81;79.56;100066.38;5070620;28;20047;-89
2024/01/08 04:11:32;;;;;;;2.60;1.70;;;;;;;12.92;79.52;100090.31;5084658;28;20028;-89
2024/01/08 04:13:57;;;;;;;1.85;1.70;;;;;;;12.78;79.38;100066.25;5087961;28;20063;-89
2024/01/08 04:16:23;;;;;;;1.90;1.70;;;;;;;12.59;79.46;100036.84;5082703;28;20059;-89
2024/01/08 04:18:49;;;;;;;2.92;1.70;;;;;;;12.75;79.42;100063.53;5073593;28;20416;-88
2024/01/08 04:21:17;;;;;;;1.83;1.55;;;;;;;12.72;79.44;100060.81;5086201;28;20047;-89
2024/01/08 04:23:43;;;;;;;2.70;1.88;;;;;;;12.78;79.42;100080.28;5067623;28;20033;-88
2024/01/08 04:26:16;;;;;;;2.70;1.63;;;;;;;13.06;79.51;100131.00;5070696;28;20486;-87
2024/01/08 04:28:42;;;;;;;3.17;2.20;;;;;;;12.88;79.23;100109.38;5086837;28;20564;-88
2024/01/08 04:31:16;;;;;;;1.75;1.52;;;;;;;12.80;79.46;100099.53;5086560;28;20895;-86
2024/01/08 04:33:42;;;;;;;2.05;1.67;;;;;;;12.70;79.36;100086.06;5059686;28;20028;-87
2024/01/08 04:36:08;;;;;;;2.85;1.75;;;;;;;12.75;79.44;100100.22;5087492;28;20450;-87
2024/01/08 04:38:39;;;;;;;1.95;1.77;;;;;;;12.83;79.25;100122.34;5088028;28;20051;-87
2024/01/08 04:41:05;;;;;;;3.10;1.70;;;;;;;12.80;79.40;100112.63;5085502;28;20075;-87
2024/01/08 04:43:31;;;;;;;2.60;1.70;;;;;;;13.03;79.55;100150.09;5083840;28;20032;-87
2024/01/08 04:45:57;;;;;;;1.88;1.70;;;;;;;12.56;79.67;100082.97;5082764;28;20461;-87
2024/01/08 04:48:23;;;;;;;2.17;1.60;;;;;;;12.74;79.29;100120.28;5086053;28;20932;-86
2024/01/08 04:50:49;;;;;;;2.35;1.60;;;;;;;12.74;79.46;100111.53;5087379;28;20052;-85
2024/01/08 04:53:15;;;;;;;1.95;1.50;;;;;;;12.60;79.35;100090.09;5075437;28;20037;-86
2024/01/08 04:55:41;;;;;;;2.72;1.60;;;;;;;12.68;79.39;100112.22;5078436;28;20043;-87
2024/01/08 04:58:08;;;;;;;3.03;1.85;;;;;;;12.85;79.41;100144.25;5067775;28;20032;-87
2024/01/08 05:00:33;;;;;;;1.90;1.60;;;;;;;12.87;79.54;100147.81;5059537;28;20047;-86
2024/01/08 05:02:59;;;;;;;3.00;1.85;;;;;;;12.61;79.36;100107.59;5088412;28;20028;-87
2024/01/08 05:05:25;;;;;;;2.15;1.90;;;;;;;12.66;79.34;100108.66;5085544;28;20669;-88
2024/01/08 05:07:51;;;;;;;1.92;1.52;;;;;;;12.64;79.52;100102.47;5085938;28;20082;-87
2024/01/08 05:10:16;;;;;;;2.33;1.70;;;;;;;12.74;79.36;100130.78;5081007;28;20033;-88
2024/01/08 05:12:42;;;;;;;1.75;1.60;;;;;;;12.51;79.62;100092.38;5071786;28;20021;-89
2024/01/08 05:15:08;;;;;;;3.13;1.83;;;;;;;12.71;79.27;100129.75;5079832;28;20577;-87
2024/01/08 05:17:35;;;;;;;1.88;1.50;;;;;;;12.74;79.42;100140.34;5087804;28;20111;-88
2024/01/08 05:20:01;;;;;;;3.03;1.83;;;;;;;13.02;79.17;100185.03;5075922;28;20193;-88
2024/01/08 05:22:27;;;;;;;2.00;1.70;;;;;;;12.68;78.86;100127.03;5081173;28;20485;-88
2024/01/08 05:25:01;;;;;;;3.47;1.50;;;;;;;12.97;78.96;100190.94;5077340;28;20039;-86
2024/01/08 05:27:27;;;;;;;2.70;1.58;;;;;;;12.72;78.84;100148.16;5084515;28;20098;-88
2024/01/08 05:29:53;;;;;;;2.25;1.60;;;;;;;12.93;78.86;100186.41;5083212;28;20036;-88
2024/01/08 05:32:18;;;;;;;1.63;1.42;;;;;;;12.66;78.80;100141.78;5077092;28;20035;-88
2024/01/08 05:34:44;;;;;;;1.75;1.60;;;;;;;12.90;79.03;100192.44;5088287;28;20413;-88
2024/01/08 05:37:10;;;;;;;1.40;1.30;;;;;;;12.42;78.92;100127.91;5068643;28;20071;-88
2024/01/08 05:39:36;;;;;;;1.70;1.40;;;;;;;12.98;78.80;100213.69;5082684;28;20537;-88
2024/01/08 05:42:02;;;;;;;1.50;1.40;;;;;;;12.75;78.79;100187.56;5085491;28;20020;-88
2024/01/08 05:44:28;;;;;;;1.77;1.48;;;;;;;12.81;78.90;100202.63;5064201;28;20800;-88
2024/01/08 05:46:54;;;;;;;2.53;1.80;;;;;;;12.38;78.95;100130.34;5082044;28;20108;-89
2024/01/08 05:49:49;;;;;;;2.08;1.70;;;;;;;12.75;78.75;100191.91;5088481;28;20584;-90
2024/01/08 05:52:15;;;;;;;1.80;1.60;;;;;;;12.32;78.98;100115.31;5088119;28;20092;-88
2024/01/08 05:54:41;;;;;;;2.33;1.58;;;;;;;12.61;79.01;100178.31;5068593;28;20024;-88
2024/01/08 05:57:07;;;;;;;1.48;1.20;;;;;;;12.29;78.68;100124.78;5067664;28;20032;-89
2024/01/08 05:59:33;;;;;;;;;;;;;;;12.96;78.97;100252.06;5064711;28;20033;-89
2024/01/08 06:01:59;;;;;;;1.50;1.38;;;;;;;12.59;78.61;100190.44;5069167;28;19916;-89
2024/01/08 06:04:25;;;;;;;1.55;1.45;;;;;;;12.83;78.83;100241.13;5085250;28;20051;-88
2024/01/08 06:06:52;;;;;;;2.05;1.40;;;;;;;12.74;78.72;100219.84;5070664;28;20534;-88
2024/01/08 06:09:20;;;;;;;1.20;1.10;;;;;;;12.48;78.71;100197.91;5067848;28;20032;-87
2024/01/08 06:11:46;;;;;;;1.73;1.42;;;;;;;12.54;78.73;100210.34;5080597;28;20492;-88
2024/01/08 06:14:12;;;;;;;2.00;1.38;;;;;;;12.46;78.65;100199.59;5081420;28;20039;-88
2024/01/08 06:16:37;;;;;;;1.35;1.25;;;;;;;12.90;78.76;100286.78;5070417;28;20094;-88
2024/01/08 06:19:03;;;;;;;1.85;1.50;;;;;;;12.91;78.38;100275.50;5086903;28;20219;-91
2024/01/08 06:21:29;;;;;;;1.48;1.25;;;;;;;12.48;78.50;100231.06;5082744;28;20032;-88
2024/01/08 06:23:55;;;;;;;1.98;1.67;;;;;;;12.15;78.64;100184.44;5079119;28;20111;-89
2024/01/08 06:26:30;;;;;;;1.77;1.60;;;;;;;12.40;78.99;100226.47;5069903;28;20421;-90
2024/01/08 06:29:00;;;;;;;1.95;1.70;;;;;;;12.66;78.58;100267.53;5083137;28;20464;-91
2024/01/08 06:31:29;;;;;;;1.55;1.45;;;;;;;12.58;78.75;100268.16;5072279;28;20028;-88
2024/01/08 06:33:55;;;;;;;1.60;1.50;;;;;;;12.47;79.30;100261.63;5076038;28;20047;-88
2024/01/08 06:36:21;;;;;;;1.40;1.30;;;;;;;12.50;78.88;100273.94;5087654;28;20056;-88
2024/01/08 06:38:48;;;;;;;1.92;1.42;;;;;;;12.65;78.87;100297.19;5079901;28;20515;-88
2024/01/08 06:41:14;;;;;;;1.55;1.40;;;;;;;12.70;78.78;100306.09;5058534;28;20136;-89
2024/01/08 06:43:40;;;;;;;1.50;1.30;;;;;;;12.79;78.65;100322.19;5070509;28;20029;-87
2024/01/08 06:46:07;;;;;;;2.25;1.40;;;;;;;12.34;78.94;100251.47;5074526;28;20561;-87
2024/01/08 06:48:33;;;;;;;1.90;1.42;;;;;;;12.64;78.62;100301.53;5077524;28;20029;-87
2024/01/08 06:51:02;;;;;;;1.73;1.45;;;;;;;12.62;78.97;100311.94;5079604;28;20483;-87
2024/01/08 06:53:28;;;;;;;1.40;1.30;;;;;;;12.88;78.87;100360.94;5080464;28;20489;-88
2024/01/08 06:55:54;;;;;;;1.58;1.35;;;;;;;12.63;78.96;100334.69;5078937;28;20097;-88
2024/01/08 06:58:20;;;;;;;2.05;1.50;;;;;;;12.62;78.92;100345.13;5062237;28;20039;-87
2024/01/08 07:00:47;;;;;;;2.25;1.60;;;;;;;12.68;79.13;100357.53;5062374;28;20089;-86
2024/01/08 07:03:14;;;;;;;1.90;1.60;;;;;;;12.84;78.95;100386.13;5085061;28;21460;-87
2024/01/08 07:05:40;;;;;;;1.73;1.50;;;;;;;12.53;78.93;100334.28;5080184;28;20080;-88
2024/01/08 07:08:07;;;;;;;1.60;1.33;;;;;;;12.66;79.00;100362.75;5078006;28;20047;-89
2024/01/08 07:10:34;;;;;;;1.77;1.60;;;;;;;12.73;79.00;100369.13;5082208;28;20029;-88
2024/01/08 07:13:00;;;;;;;3.35;1.70;;;;;;;12.56;78.73;100347.50;5078410;28;20024;-88
2024/01/08 07:15:55;;;;;;;1.50;1.30;;;;;;;12.84;78.62;100410.59;5088333;28;20021;-88
2024/01/08 07:18:21;;;;;;;1.50;1.40;;;;;;;12.84;78.62;100404.47;5065014;28;20036;-89
2024/01/08 07:20:47;;;;;;;2.05;1.45;;;;;;;12.61;78.73;100386.16;5072991;28;20035;-89
2024/01/08 07:23:13;;;;;;;1.67;1.40;;;;;;;12.74;78.66;100403.25;5072928;28;20119;-88
2024/01/08 07:25:40;;;;;;;2.95;1.40;;;;;;;12.61;78.86;100382.59;5066508;28;20111;-88
2024/01/08 07:28:10;;;;;;;1.60;1.42;;;;;;;12.50;78.69;100370.81;5089796;28;20036;-89
2024/01/08 07:30:36;;;;;;;1.60;1.23;;;;;;;12.66;78.70;100408.97;5082794;28;20021;-88
2024/01/08 07:33:04;;;;;;;1.48;1.38;;;;;;;12.38;78.59;100359.03;5087639;28;20024;-89
2024/01/08 07:35:29;;;;;;;4.55;2.83;;;;;;;12.49;78.41;100384.72;5090469;28;20024;-89
2024/01/08 07:37:55;;;;;;;4.95;2.55;;;;;;;12.48;78.44;100396.94;5073292;28;20036;-91
2024/01/08 07:40:25;;;;;;;4.68;2.75;;;;;;;12.66;78.65;100437.78;5073616;28;20032;-91
2024/01/08 07:42:55;;;;;;;2.70;2.38;;;;;;;12.49;78.57;100416.16;5076925;28;20075;-87
2024/01/08 07:45:26;;;;;;;3.15;1.80;;;;;;;12.69;78.51;100437.94;5085450;28;20042;-87
2024/01/08 07:47:52;;;;;;;4.32;2.55;;;;;;;12.34;78.72;100403.34;5081923;28;20554;-89
2024/01/08 07:50:19;;;;;;;2.95;2.10;;;;;;;12.72;78.48;100469.47;5090843;28;20127;-87
2024/01/08 07:52:45;;;;;;;3.58;2.33;;;;;;;12.46;78.48;100434.38;5083150;28;20081;-87
2024/01/08 07:55:11;;;;;;;4.72;2.63;;;;;;;12.41;78.38;100426.34;5070459;28;20162;-89
2024/01/08 07:57:37;;;;;;;5.18;2.97;;;;;;;12.51;78.55;100457.31;5071210;28;20031;-89
2024/01/08 08:00:11;;;;;;;5.22;2.88;;;;;;;12.38;78.48;100437.59;5080944;28;20035;-89
2024/01/08 08:02:38;;;;;;;5.07;2.92;;;;;;;12.27;78.34;100428.38;5059656;28;20082;-88
2024/01/08 08:05:04;;;;;;;3.83;2.45;;;;;;;12.34;78.36;100456.63;5099306;28;20032;-88
2024/01/08 08:07:31;;;;;;;3.33;2.33;;;;;;;12.65;78.63;100514.63;5088662;28;20024;-88
2024/01/08 08:09:57;;;;;;;4.03;2.38;;;;;;;12.31;78.57;100456.47;5082392;28;20101;-89
2024/01/08 08:12:23;;;;;;;3.63;2.50;;;;;;;12.32;78.52;100470.47;5068843;28;20432;-87
2024/01/08 08:14:48;;;;;;;3.33;2.30;;;;;;;12.38;78.64;100486.44;5088174;28;20088;-88
2024/01/08 08:17:15;;;;;;;3.55;2.58;;;;;;;12.18;78.46;100454.19;5082497;28;20086;-88
2024/01/08 08:19:42;;;;;;;4.13;2.17;;;;;;;12.53;78.71;100523.75;5076300;28;20039;-88
2024/01/08 08:22:14;;;;;;;4.47;2.97;;;;;;;12.32;78.15;100494.94;5092663;28;20443;-88
2024/01/08 08:24:40;;;;;;;3.08;2.22;;;;;;;12.48;78.33;100522.66;5085468;28;20027;-87
2024/01/08 08:27:09;;;;;;;3.30;2.42;;;;;;;12.50;78.13;100534.09;5069235;28;20115;-89
2024/01/08 08:29:42;;;;;;;2.65;2.10;;;;;;;12.50;77.97;100534.09;5080510;28;20024;-87
2024/01/08 08:32:08;;;;;;;3.40;2.13;;;;;;;12.57;78.01;100545.72;5088788;28;20029;-90
2024/01/08 08:34:34;;;;;;;;;;;;;;;12.63;78.24;100561.69;5091083;28;20136;-87
2024/01/08 08:37:00;;;;;;;2.70;2.10;;;;;;;12.19;78.23;100504.00;5080975;28;19995;-88
2024/01/08 08:39:27;;;;;;;2.58;1.90;;;;;;;12.30;78.28;100525.41;5079141;28;20033;-89
2024/01/08 08:41:54;;;;;;;2.95;2.30;;;;;;;12.43;78.34;100555.63;5086336;28;20036;-89
2024/01/08 08:44:20;;;;;;;3.08;2.15;;;;;;;12.33;78.54;100553.44;5071055;28;20032;-87
2024/01/08 08:46:46;;;;;;;4.97;2.30;;;;;;;12.37;78.29;100555.34;5081120;28;20090;-87
2024/01/08 08:49:13;;;;;;;2.80;2.05;;;;;;;12.26;78.03;100544.41;5036264;28;20033;-89
2024/01/08 08:51:40;;;;;;;2.92;2.03;;;;;;;12.48;78.31;100582.00;5049632;28;20033;-89
2024/01/08 08:54:06;;;;;;;;;;;;;;;12.58;78.15;100602.53;5052011;28;20025;-87
2024/01/08 08:56:35;;;;;;;2.55;2.17;;;;;;;12.36;78.19;100587.59;5060441;28;20282;-89
2024/01/08 08:59:01;;;;;;;2.90;1.98;;;;;;;12.32;78.02;100572.56;5053553;28;20153;-89
2024/01/08 09:01:30;;;;;;;2.25;2.00;;;;;;;12.41;78.17;100596.56;5039590;28;20028;-88
2024/01/08 09:03:55;;;;;;;3.63;2.03;;;;;;;12.52;78.24;100620.59;5047715;28;20115;-87
2024/01/08 09:06:26;;;;;;;3.75;2.15;;;;;;;11.98;78.02;100534.44;5039817;28;20120;-87
2024/01/08 09:08:53;;;;;;;2.38;1.83;;;;;;;12.43;77.89;100614.13;5043597;28;20039;-88
2024/01/08 09:11:20;;;;;;;2.10;1.90;;;;;;;12.47;78.07;100625.63;5045503;28;20025;-88
2024/01/08 09:13:47;;;;;;;2.20;1.85;;;;;;;12.44;77.96;100628.09;5043530;28;20494;-89
2024/01/08 09:16:14;;;;;;;2.13;1.60;;;;;;;12.08;77.94;100581.13;5046228;28;20032;-88
2024/01/08 09:18:41;;;;;;;2.38;1.83;;;;;;;12.29;77.55;100622.19;5052333;28;20032;-88
2024/01/08 09:21:10;;;;;;;2.47;1.90;;;;;;;12.44;77.64;100643.81;5031474;28;20498;-89
2024/01/08 09:23:37;;;;;;;2.03;1.60;;;;;;;12.37;77.58;100634.78;5030137;28;20075;-89
2024/01/08 09:26:11;;;;;;;2.55;1.70;;;;;;;12.16;78.02;100603.31;5021487;28;20063;-88
2024/01/08 09:28:36;;;;;;;1.55;1.40;;;;;;;12.19;78.08;100619.19;5046420;28;20024;-89
2024/01/08 09:31:03;;;;;;;2.35;1.80;;;;;;;12.17;77.83;100623.44;5029257;28;20384;-89
2024/01/08 09:33:29;;;;;;;2.67;2.05;;;;;;;12.05;78.16;100585.34;5041158;28;20055;-90
2024/01/08 09:35:55;;;;;;;2.60;2.08;;;;;;;12.15;77.83;100619.88;5035390;28;20029;-88
2024/01/08 09:38:21;;;;;;;2.00;1.73;;;;;;;12.07;77.80;100612.50;5047865;28;20028;-89
2024/01/08 09:40:49;;;;;;;2.08;1.75;;;;;;;12.30;77.58;100650.19;5047975;28;20024;-87
2024/01/08 09:43:15;;;;;;;1.90;1.58;;;;;;;12.32;78.24;100664.22;5041449;28;20040;-88
2024/01/08 09:45:53;;;;;;;2.75;1.90;;;;;;;12.36;77.95;100653.06;5037875;28;20032;-88
2024/01/08 09:48:19;;;;;;;1.92;1.73;;;;;;;12.01;78.18;100607.88;5028399;28;20032;-88
2024/01/08 09:50:45;;;;;;;2.55;1.90;;;;;;;12.13;77.81;100613.66;5040421;28;20386;-89
2024/01/08 09:53:11;;;;;;;;;;;;;;;12.36;77.68;100640.88;5030225;28;20025;-89
2024/01/08 09:55:38;;;;;;;1.90;1.52;;;;;;;12.07;78.44;100602.03;5061407;28;19917;-90
2024/01/08 09:58:08;;;;;;;1.65;1.40;;;;;;;12.03;77.83;100603.59;5027932;28;20029;-90
2024/01/08 10:00:34;;;;;;;2.70;1.77;;;;;;;12.02;77.86;100601.78;5038145;28;20254;-89
2024/01/08 10:03:00;;;;;;;2.72;1.88;;;;;;;12.21;77.83;100641.09;5038259;28;20033;-88
2024/01/08 10:05:28;;;;;;;1.92;1.55;;;;;;;11.98;78.21;100598.16;5060043;28;20526;-90
2024/01/08 10:07:54;;;;;;;2.05;1.70;;;;;;;12.21;78.03;100648.94;5037417;28;20504;-88
2024/01/08 10:10:22;;;;;;;1.67;1.58;;;;;;;11.98;78.36;100599.84;5036715;28;20070;-90
2024/01/08 10:12:51;;;;;;;1.98;1.77;;;;;;;12.00;78.08;100616.53;5072144;28;20083;-89
2024/01/08 10:15:19;;;;;;;1.90;1.65;;;;;;;12.14;77.97;100643.34;5037914;28;20063;-89
2024/01/08 10:17:49;;;;;;;1.90;1.50;;;;;;;12.27;78.40;100655.28;5037861;28;20037;-89
2024/01/08 10:20:17;;;;;;;1.90;1.70;;;;;;;11.84;77.99;100572.16;5024106;28;20045;-89
2024/01/08 10:22:45;;;;;;;1.55;1.42;;;;;;;11.71;78.31;100573.31;5039373;28;20029;-88
2024/01/08 10:25:11;;;;;;;1.58;1.33;;;;;;;12.15;78.49;100656.50;5046400;28;20028;-88
2024/01/08 10:27:36;;;;;;;;;;;;;;;12.20;78.50;100652.38;5042037;28;20067;-88
2024/01/08 10:30:03;;;;;;;2.30;1.65;;;;;;;11.82;78.17;100603.47;5034833;28;20361;-89
2024/01/08 10:32:29;;;;;;;;;;;;;;;12.20;78.08;100673.31;5039797;28;20032;-89
2024/01/08 10:34:56;;;;;;;1.67;1.50;;;;;;;11.82;77.77;100614.81;5038144;28;19916;-88
2024/01/08 10:37:24;;;;;;;2.80;1.45;;;;;;;12.04;78.27;100665.56;5030956;28;20102;-88
2024/01/08 10:39:55;;;;;;;1.75;1.60;;;;;;;12.13;78.46;100675.59;5043032;28;20032;-89
2024/01/08 10:42:24;;;;;;;2.20;1.77;;;;;;;12.11;78.54;100685.09;5025891;28;20100;-92
2024/01/08 10:44:52;;;;;;;5.20;2.28;;;;;;;11.83;78.30;100644.50;5038673;28;20115;-91
2024/01/08 10:47:23;;;;;;;5.22;2.60;;;;;;;11.90;78.11;100656.22;5056383;28;20147;-90
2024/01/08 10:49:55;;;;;;;6.30;3.20;;;;;;;11.99;77.37;100672.31;5063625;28;20602;-92
2024/01/08 10:52:35;;;;;;;3.90;2.67;;;;;;;12.10;77.44;100701.63;5092745;28;20477;-91
2024/01/08 10:55:01;;;;;;;3.35;2.08;;;;;;;12.10;78.29;100707.75;5071573;28;20039;-90
2024/01/08 10:58:19;;;;;;;3.47;2.22;;;;;;;12.10;78.10;100710.34;5075297;28;20028;-92
2024/01/08 11:00:45;;;;;;;3.63;2.30;;;;;;;11.72;77.74;100632.66;5045555;28;20044;-91
2024/01/08 11:03:31;;;;;;;4.45;2.20;;;;;;;12.06;77.96;100695.31;5074747;28;20034;-92
2024/01/08 11:05:59;;;;;;;3.43;2.17;;;;;;;11.99;78.31;100690.66;5074300;28;20154;-90
2024/01/08 11:08:29;;;;;;;3.20;2.20;;;;;;;12.06;77.85;100699.69;5082154;28;20327;-91
2024/01/08 11:11:05;;;;;;;2.75;2.13;;;;;;;11.94;77.48;100700.00;5070813;28;20036;-92
2024/01/08 11:13:35;;;;;;;2.83;2.20;;;;;;;11.87;77.62;100692.66;5071796;28;20107;-91
2024/01/08 11:16:05;;;;;;;3.72;2.30;;;;;;;11.92;77.64;100713.00;5069777;28;20028;-91
2024/01/08 11:18:30;;;;;;;2.83;2.15;;;;;;;11.71;77.89;100683.19;5071827;28;20039;-90
2024/01/08 11:20:59;;;;;;;2.83;2.00;;;;;;;11.91;77.54;100718.16;5069927;28;20028;-90
2024/01/08 11:23:32;;;;;;;3.38;2.20;;;;;;;11.98;77.88;100746.41;5076511;28;20572;-90
2024/01/08 11:26:02;;;;;;;2.80;2.17;;;;;;;11.75;77.82;100719.13;5093420;28;20039;-91
2024/01/08 11:28:34;;;;;;;2.78;2.13;;;;;;;11.88;77.60;100741.56;5074457;28;20394;-91